Startpagina
METAR-TAF:

METAR-TAF

Vliegvelden :

Mwanza, Tanzania

breedte: 02-28S, lengte: 032-55E, hoogte: 1139 m

Actueel weer

Dit bericht is 1 uur en het 8 minuten geleden gemaakt, om 08:00 UTC
Wind 7 kt uit het westen
Temperatuur 27°C
Vochtigheid 48%
Druk 1020 hPa
Zicht 10 km of meer
Weinig wolken op 2800 ft

METAR: HTMW 250800Z 28007KT 9999 FEW028 27/15 Q1020 NOSIG

Tijdstip: 12:08 (09:08 UTC)

Verwachting

Dit bericht is 4 uur en het 8 minuten geleden gemaakt, om 05:00 UTC
Verwachting geldig van 25 om 06 UTC tot 26 om 06 UTC
Wind 10 kt uit het oostzuidoosten
Zicht 10 km of meer
Weinig wolken op 2200 ft
Weinig wolken op 2300 ft, Cumulonimbus.
Wijzigt naar
van 25 om 11 UTC tot 25 om 13 UTC
Wind 10 kt uit het noordwesten

TAF: HTMW 250500Z 2506/2606 12010KT 9999 FEW022 FEW023CB BECMG 2511/2513 32010KT

Waarnemingen en weersverwachtingen van meer dan 4000 vliegvelden (METAR en TAF).

De beschikbare stations zijn de gele en rode punten op de kaart.

Ga met uw muis naar het station om de naam te zien.

Klik dan om waarnemingen en weersverwachtingen te zien.

kaart wijzigen: klik op de groene knoppen met een zwart kruis om in te zoomen, op de groene knop met een streepje om uit te zoomen of op de groene pijlen voor aangrenzende kaarten.


METAR-TAF: